createdAt,value
2019-03-04T00:01:18.000Z,2.90
2019-03-04T00:03:47.703Z,3.27
2019-03-04T00:06:17.364Z,2.47
2019-03-04T00:08:47.095Z,2.80
2019-03-04T00:11:16.772Z,3.20
2019-03-04T00:13:46.437Z,1.90
2019-03-04T00:16:16.077Z,3.23
2019-03-04T00:18:45.811Z,2.37
2019-03-04T00:21:15.467Z,2.43
2019-03-04T00:23:45.117Z,2.60
2019-03-04T00:26:14.736Z,2.57
2019-03-04T00:28:44.457Z,3.20
2019-03-04T00:31:14.140Z,2.87
2019-03-04T00:33:43.810Z,3.23
2019-03-04T00:36:13.804Z,2.63
2019-03-04T00:38:43.503Z,3.07
2019-03-04T00:41:13.180Z,2.40
2019-03-04T00:43:42.883Z,3.03
2019-03-04T00:46:12.527Z,2.80
2019-03-04T00:48:42.225Z,2.53
2019-03-04T00:51:11.881Z,1.70
2019-03-04T00:53:41.524Z,2.40
2019-03-04T00:56:11.148Z,2.13
2019-03-04T00:58:40.863Z,3.20
2019-03-04T01:01:10.552Z,3.73
2019-03-04T01:03:40.226Z,3.80
2019-03-04T01:06:09.863Z,2.13
2019-03-04T01:08:40.036Z,2.33
2019-03-04T01:11:09.695Z,2.73
2019-03-04T01:13:39.332Z,2.77
2019-03-04T01:16:08.982Z,3.40
2019-03-04T01:18:38.656Z,2.53
2019-03-04T01:21:08.329Z,2.40
2019-03-04T01:23:37.964Z,3.03
2019-03-04T01:26:07.604Z,2.57
2019-03-04T01:28:37.279Z,3.40
2019-03-04T01:31:07.015Z,2.63
2019-03-04T01:33:36.747Z,2.77
2019-03-04T01:36:06.487Z,3.83
2019-03-04T01:38:36.226Z,3.17
2019-03-04T01:41:05.876Z,3.00
2019-03-04T01:43:35.516Z,2.63
2019-03-04T01:46:05.154Z,2.50
2019-03-04T01:48:34.857Z,2.50
2019-03-04T01:51:04.512Z,3.20
2019-03-04T01:53:34.147Z,2.77
2019-03-04T01:56:03.784Z,2.23
2019-03-04T01:58:33.517Z,2.60
2019-03-04T02:01:03.300Z,2.07
2019-03-04T02:03:32.946Z,2.80
2019-03-04T02:06:02.602Z,2.53
2019-03-04T02:08:32.482Z,4.37
2019-03-04T02:11:02.120Z,2.10
2019-03-04T02:13:31.749Z,2.73
2019-03-04T02:16:01.391Z,4.33
2019-03-04T02:18:31.067Z,2.10
2019-03-04T02:21:01.701Z,2.50
2019-03-04T02:23:31.355Z,4.07
2019-03-04T02:26:30.304Z,2.43
2019-03-04T02:29:00.012Z,2.53
2019-03-04T02:31:29.760Z,2.17
2019-03-04T02:33:59.469Z,3.00
2019-03-04T02:36:29.196Z,2.97
2019-03-04T02:38:58.853Z,2.47
2019-03-04T02:41:28.515Z,2.37
2019-03-04T02:43:58.148Z,2.53
2019-03-04T02:46:27.827Z,3.40
2019-03-04T02:48:57.518Z,3.87
2019-03-04T02:51:27.183Z,2.83
2019-03-04T02:53:56.822Z,2.60
2019-03-04T02:56:26.463Z,2.40
2019-03-04T02:58:56.208Z,2.30
2019-03-04T03:01:26.041Z,3.40
2019-03-04T03:03:55.694Z,3.20
2019-03-04T03:06:25.331Z,3.30
2019-03-04T03:08:55.114Z,2.60
2019-03-04T03:11:25.213Z,3.07
2019-03-04T03:13:54.873Z,3.27
2019-03-04T03:16:24.532Z,2.60
2019-03-04T03:18:54.312Z,2.93
2019-03-04T03:21:23.902Z,1.83
2019-03-04T03:23:53.544Z,2.40
2019-03-04T03:26:23.215Z,3.00
2019-03-04T03:28:52.964Z,3.23
2019-03-04T03:31:22.610Z,2.67
2019-03-04T03:33:52.298Z,3.90
2019-03-04T03:36:21.981Z,2.70
2019-03-04T03:38:51.699Z,3.90
2019-03-04T03:41:21.478Z,3.07
2019-03-04T03:43:51.145Z,3.70
2019-03-04T03:46:20.796Z,2.27
2019-03-04T03:48:50.614Z,3.27
2019-03-04T03:51:20.242Z,2.17
2019-03-04T03:53:49.894Z,2.83
2019-03-04T03:56:19.536Z,2.70
2019-03-04T03:58:49.265Z,3.47
2019-03-04T04:01:18.922Z,2.60
2019-03-04T04:03:48.560Z,3.27
2019-03-04T04:06:18.211Z,2.67
2019-03-04T04:08:47.913Z,3.47
2019-03-04T04:11:17.587Z,2.40
2019-03-04T04:13:47.216Z,1.93
2019-03-04T04:16:16.875Z,2.67
2019-03-04T04:18:46.537Z,2.73
2019-03-04T04:21:16.180Z,2.47
2019-03-04T04:23:45.937Z,2.13
2019-03-04T04:26:21.758Z,1.90
2019-03-04T04:28:57.487Z,2.80
2019-03-04T04:31:27.147Z,2.40
2019-03-04T04:33:56.857Z,2.60
2019-03-04T04:36:26.549Z,2.37
2019-03-04T04:38:57.235Z,2.00
2019-03-04T04:41:26.955Z,2.27
2019-03-04T04:43:56.619Z,2.17
2019-03-04T04:46:52.439Z,2.47
2019-03-04T04:49:22.431Z,1.47
2019-03-04T04:51:52.064Z,2.20
2019-03-04T04:54:21.699Z,3.37
2019-03-04T04:56:51.420Z,1.93
2019-03-04T04:59:21.115Z,2.00
2019-03-04T05:01:50.774Z,1.70
2019-03-04T05:04:20.407Z,2.53
2019-03-04T05:06:50.359Z,1.93
2019-03-04T05:09:19.999Z,2.13
2019-03-04T05:11:49.643Z,2.00
2019-03-04T05:14:19.300Z,5.47
2019-03-04T05:16:48.961Z,4.83
2019-03-04T05:19:19.129Z,1.93
2019-03-04T05:21:48.840Z,3.40
2019-03-04T05:24:18.500Z,2.90
2019-03-04T05:26:48.145Z,7.37
2019-03-04T05:29:17.869Z,4.27
2019-03-04T05:31:47.526Z,10.10
2019-03-04T05:34:17.264Z,12.07
2019-03-04T05:36:47.100Z,4.73
2019-03-04T05:39:16.762Z,7.63
2019-03-04T05:41:46.417Z,9.60
2019-03-04T05:44:16.109Z,8.83
2019-03-04T05:46:45.892Z,19.83
2019-03-04T05:49:15.522Z,19.43
2019-03-04T05:51:45.178Z,21.57
2019-03-04T05:54:14.816Z,9.87
2019-03-04T05:56:44.461Z,12.00
2019-03-04T05:59:19.740Z,7.80
2019-03-04T06:01:56.098Z,9.83
2019-03-04T06:04:25.809Z,7.17
2019-03-04T06:07:14.450Z,3.73
2019-03-04T06:09:44.088Z,6.33
2019-03-04T06:12:13.774Z,4.67
2019-03-04T06:14:43.548Z,6.70
2019-03-04T06:17:13.470Z,6.47
2019-03-04T06:19:44.040Z,7.23
2019-03-04T06:22:13.905Z,5.80
2019-03-04T06:24:43.641Z,5.23
2019-03-04T06:27:13.393Z,6.40
2019-03-04T06:29:43.112Z,3.97
2019-03-04T06:32:12.849Z,6.20
2019-03-04T06:34:42.567Z,5.50
2019-03-04T06:37:12.495Z,4.77
2019-03-04T06:39:42.259Z,5.13
2019-03-04T06:42:11.999Z,6.57
2019-03-04T06:44:41.699Z,4.40
2019-03-04T06:47:11.495Z,5.87
2019-03-04T06:49:41.191Z,3.63
2019-03-04T06:52:10.892Z,4.93
2019-03-04T06:55:22.410Z,3.80
2019-03-04T06:57:53.312Z,2.97
2019-03-04T07:00:56.762Z,3.53
2019-03-04T07:03:33.151Z,3.80
2019-03-04T07:06:03.355Z,5.10
2019-03-04T07:09:00.967Z,5.03
2019-03-04T07:11:31.417Z,5.23
2019-03-04T07:14:01.228Z,6.40
2019-03-04T07:16:32.101Z,4.47
2019-03-04T07:19:04.152Z,5.33
2019-03-04T07:21:33.887Z,3.20
2019-03-04T07:24:22.788Z,3.37
2019-03-04T07:26:53.202Z,3.30
2019-03-04T07:29:23.669Z,3.67
2019-03-04T07:31:53.732Z,3.43
2019-03-04T07:34:24.009Z,4.30
2019-03-04T07:36:54.442Z,4.10
2019-03-04T07:39:25.006Z,3.33
2019-03-04T07:41:59.262Z,3.60
2019-03-04T07:44:29.387Z,3.13
2019-03-04T07:46:59.846Z,4.63
2019-03-04T07:49:30.034Z,4.20
2019-03-04T07:52:00.228Z,3.77
2019-03-04T07:54:30.610Z,3.10
2019-03-04T07:57:00.935Z,3.33
2019-03-04T07:59:31.356Z,3.90
2019-03-04T08:02:01.477Z,3.47
2019-03-04T08:04:31.699Z,3.23
2019-03-04T08:07:57.719Z,5.33
2019-03-04T08:11:18.118Z,4.43
2019-03-04T08:13:52.189Z,3.30
2019-03-04T08:16:22.507Z,4.17
2019-03-04T08:18:52.862Z,3.37
2019-03-04T08:21:22.830Z,4.47
2019-03-04T08:23:53.321Z,2.60
2019-03-04T08:26:23.623Z,3.43
2019-03-04T08:28:54.059Z,3.40
2019-03-04T08:31:24.185Z,3.53
2019-03-04T08:33:54.481Z,3.80
2019-03-04T08:36:24.868Z,3.10
2019-03-04T08:38:55.250Z,4.23
2019-03-04T08:41:25.521Z,3.67
2019-03-04T08:43:55.748Z,3.57
2019-03-04T08:46:25.744Z,4.70
2019-03-04T08:48:57.024Z,3.57
2019-03-04T08:51:27.081Z,3.57
2019-03-04T08:53:57.178Z,3.77
2019-03-04T08:56:27.508Z,3.97
2019-03-04T08:58:57.672Z,3.57
2019-03-04T09:01:27.629Z,4.37
2019-03-04T09:03:57.380Z,2.80
2019-03-04T09:06:27.121Z,2.70
2019-03-04T09:08:56.916Z,2.83
2019-03-04T09:11:26.597Z,3.50
2019-03-04T09:13:56.302Z,4.80
2019-03-04T09:16:26.015Z,2.77
2019-03-04T09:18:55.712Z,3.10
2019-03-04T09:21:25.427Z,3.63
2019-03-04T09:23:55.072Z,3.30
2019-03-04T09:26:24.843Z,3.00
2019-03-04T09:28:54.546Z,2.97
2019-03-04T09:31:24.286Z,3.80
2019-03-04T09:33:54.055Z,2.93
2019-03-04T09:36:23.733Z,2.80
2019-03-04T09:38:53.542Z,3.80
2019-03-04T09:41:23.217Z,4.47
2019-03-04T09:43:52.922Z,4.03
2019-03-04T09:46:22.761Z,3.30
2019-03-04T09:48:52.549Z,4.47
2019-03-04T09:51:24.699Z,3.00
2019-03-04T09:53:53.680Z,3.30
2019-03-04T09:56:23.364Z,4.27
2019-03-04T09:58:53.189Z,3.40
2019-03-04T10:01:55.471Z,3.13
2019-03-04T10:05:06.782Z,3.50
2019-03-04T10:08:33.062Z,3.53
2019-03-04T10:11:37.720Z,3.17
2019-03-04T10:14:50.583Z,2.80
2019-03-04T10:17:54.829Z,2.80
2019-03-04T10:20:51.224Z,3.13
2019-03-04T10:24:02.068Z,3.70
2019-03-04T10:27:20.163Z,4.67
2019-03-04T10:30:33.827Z,2.77
2019-03-04T10:33:50.539Z,3.70
2019-03-04T10:36:55.678Z,3.03
2019-03-04T10:40:15.547Z,3.53
2019-03-04T10:43:13.985Z,3.23
2019-03-04T10:46:11.193Z,3.10
2019-03-04T10:48:41.894Z,2.90
2019-03-04T10:51:11.615Z,2.63
2019-03-04T10:53:41.306Z,3.60
2019-03-04T10:56:10.975Z,2.50
2019-03-04T10:58:41.559Z,3.27
2019-03-04T11:01:11.329Z,2.83
2019-03-04T11:03:41.015Z,3.17
2019-03-04T11:06:10.731Z,3.10
2019-03-04T11:08:40.501Z,3.33
2019-03-04T11:11:10.237Z,3.63
2019-03-04T11:13:39.966Z,3.60
2019-03-04T11:16:09.798Z,3.67
2019-03-04T11:18:39.516Z,3.00
2019-03-04T11:21:09.262Z,3.20
2019-03-04T11:23:39.007Z,3.20
2019-03-04T11:26:08.684Z,2.90
2019-03-04T11:28:38.381Z,2.90
2019-03-04T11:31:08.050Z,3.13
2019-03-04T11:33:37.700Z,3.20
2019-03-04T11:36:07.383Z,3.30
2019-03-04T11:38:42.603Z,3.30
2019-03-04T11:41:15.076Z,4.23
2019-03-04T11:43:45.888Z,3.53
2019-03-04T11:46:15.725Z,3.33
2019-03-04T11:48:45.477Z,3.60
2019-03-04T11:51:15.191Z,2.77
2019-03-04T11:53:44.946Z,3.00
2019-03-04T11:56:14.615Z,3.77
2019-03-04T11:58:44.567Z,2.80
2019-03-04T12:01:21.812Z,3.57
2019-03-04T12:03:51.483Z,2.80
2019-03-04T12:06:21.192Z,4.00
2019-03-04T12:08:51.416Z,3.80
2019-03-04T12:11:21.073Z,2.90
2019-03-04T12:13:50.780Z,3.00
2019-03-04T12:16:20.523Z,4.83
2019-03-04T12:18:50.311Z,2.97
2019-03-04T12:21:20.012Z,2.90
2019-03-04T12:23:49.815Z,4.37
2019-03-04T12:26:19.685Z,2.60
2019-03-04T12:28:49.461Z,3.40
2019-03-04T12:31:19.148Z,3.13
2019-03-04T12:33:48.874Z,3.67
2019-03-04T12:36:18.538Z,2.90
2019-03-04T12:38:48.269Z,3.50
2019-03-04T12:41:18.023Z,3.50
2019-03-04T12:43:47.884Z,3.37
2019-03-04T12:46:17.590Z,2.73
2019-03-04T12:48:47.347Z,2.73
2019-03-04T12:51:23.193Z,3.07
2019-03-04T12:53:48.412Z,2.47
2019-03-04T12:56:18.099Z,2.20
2019-03-04T12:58:47.905Z,2.87
2019-03-04T13:01:17.600Z,2.47
2019-03-04T13:03:47.259Z,2.50
2019-03-04T13:06:16.950Z,3.90
2019-03-04T13:08:46.700Z,3.60
2019-03-04T13:11:16.356Z,2.10
2019-03-04T13:13:46.095Z,2.80
2019-03-04T13:16:15.808Z,2.33
2019-03-04T13:18:45.586Z,2.67
2019-03-04T13:21:15.371Z,2.13
2019-03-04T13:23:45.188Z,1.77
2019-03-04T13:26:15.089Z,2.70
2019-03-04T13:28:45.100Z,2.00
2019-03-04T13:31:15.096Z,1.80
2019-03-04T13:33:44.799Z,2.33
2019-03-04T13:36:15.173Z,2.33
2019-03-04T13:38:45.480Z,1.63
2019-03-04T13:41:15.796Z,2.33
2019-03-04T13:43:45.736Z,2.13
2019-03-04T13:46:15.901Z,2.60
2019-03-04T13:48:45.871Z,1.80
2019-03-04T13:51:15.937Z,1.70
2019-03-04T13:53:45.619Z,1.70
2019-03-04T13:56:15.756Z,2.40
2019-03-04T13:59:04.956Z,1.73
2019-03-04T14:01:35.505Z,1.80
2019-03-04T14:04:05.674Z,1.80
2019-03-04T14:06:36.042Z,1.90
2019-03-04T14:09:07.739Z,2.63
2019-03-04T14:11:37.407Z,2.13
2019-03-04T14:14:07.100Z,3.37
2019-03-04T14:16:36.775Z,1.83
2019-03-04T14:19:06.509Z,2.30
2019-03-04T14:21:36.205Z,1.57
2019-03-04T14:24:05.899Z,1.67
2019-03-04T14:26:35.610Z,1.53
2019-03-04T14:29:05.318Z,2.20
2019-03-04T14:31:35.009Z,2.13
2019-03-04T14:34:04.783Z,1.57
2019-03-04T14:36:34.515Z,1.73
2019-03-04T14:39:05.343Z,2.17
2019-03-04T14:41:35.036Z,2.27
2019-03-04T14:44:04.807Z,2.13
2019-03-04T14:46:34.477Z,1.63
2019-03-04T14:49:04.231Z,2.20
2019-03-04T14:51:33.910Z,2.43
2019-03-04T14:54:03.625Z,1.77
2019-03-04T14:56:33.323Z,2.63
2019-03-04T14:59:10.501Z,1.33
2019-03-04T15:01:34.800Z,1.80
2019-03-04T15:04:04.500Z,2.33
2019-03-04T15:06:34.247Z,2.57
2019-03-04T15:09:04.772Z,2.33
2019-03-04T15:11:34.532Z,1.87
2019-03-04T15:14:04.338Z,1.80
2019-03-04T15:16:34.130Z,2.63
2019-03-04T15:19:03.931Z,1.30
2019-03-04T15:21:33.662Z,1.30
2019-03-04T15:24:03.385Z,1.27
2019-03-04T15:26:41.001Z,2.50
2019-03-04T15:29:04.499Z,1.50
2019-03-04T15:31:34.176Z,2.13
2019-03-04T15:34:03.851Z,1.10
2019-03-04T15:36:33.556Z,1.97
2019-03-04T15:39:04.773Z,1.63
2019-03-04T15:41:40.121Z,2.13
2019-03-04T15:44:05.777Z,1.97
2019-03-04T15:46:35.544Z,1.67
2019-03-04T15:49:05.288Z,1.70
2019-03-04T15:51:34.966Z,2.17
2019-03-04T15:54:04.725Z,1.73
2019-03-04T15:56:35.538Z,1.47
2019-03-04T15:59:05.334Z,2.10
2019-03-04T16:01:35.088Z,2.47
2019-03-04T16:04:04.843Z,1.73
2019-03-04T16:06:34.520Z,1.40
2019-03-04T16:09:04.949Z,1.70
2019-03-04T16:11:34.747Z,3.87
2019-03-04T16:14:04.453Z,4.23
2019-03-04T16:16:34.171Z,3.70
2019-03-04T16:19:03.953Z,6.33
2019-03-04T16:21:33.911Z,4.77
2019-03-04T16:24:03.692Z,3.20
2019-03-04T16:26:33.495Z,4.60
2019-03-04T16:29:03.427Z,6.93
2019-03-04T16:31:33.268Z,4.33
2019-03-04T16:34:03.060Z,3.50
2019-03-04T16:36:32.781Z,5.47
2019-03-04T16:39:03.887Z,2.13
2019-03-04T16:41:33.809Z,3.13
2019-03-04T16:44:03.532Z,3.27
2019-03-04T16:46:33.231Z,3.97
2019-03-04T16:49:03.250Z,5.07
2019-03-04T16:51:32.939Z,9.27
2019-03-04T16:54:02.892Z,10.90
2019-03-04T16:56:32.656Z,9.47
2019-03-04T16:59:02.457Z,5.93
2019-03-04T17:01:32.336Z,3.63
2019-03-04T17:04:02.491Z,3.83
2019-03-04T17:06:32.150Z,2.70
2019-03-04T17:09:01.889Z,5.17
2019-03-04T17:11:31.784Z,4.30
2019-03-04T17:14:01.487Z,4.57
2019-03-04T17:16:31.301Z,2.67
2019-03-04T17:19:01.068Z,4.30
2019-03-04T17:21:30.823Z,4.10
2019-03-04T17:24:00.486Z,11.03
2019-03-04T17:26:30.143Z,7.27
2019-03-04T17:28:59.904Z,4.60
2019-03-04T17:31:29.710Z,3.77
2019-03-04T17:33:59.582Z,4.43
2019-03-04T17:36:29.367Z,4.63
2019-03-04T17:38:59.183Z,4.50
2019-03-04T17:41:28.875Z,3.47
2019-03-04T17:43:58.592Z,3.90
2019-03-04T17:46:28.394Z,4.30
2019-03-04T17:48:58.236Z,5.23
2019-03-04T17:51:27.954Z,1.47
2019-03-04T17:53:57.789Z,51.73
2019-03-04T17:56:27.537Z,34.60
2019-03-04T17:58:57.523Z,23.50
2019-03-04T18:01:27.315Z,20.33
2019-03-04T18:03:57.283Z,29.10
2019-03-04T18:06:27.039Z,29.07
2019-03-04T18:08:56.797Z,30.50
2019-03-04T18:11:26.525Z,25.97
2019-03-04T18:13:56.260Z,32.40
2019-03-04T18:16:25.971Z,29.40
2019-03-04T18:18:55.901Z,28.23
2019-03-04T18:21:25.635Z,30.70
2019-03-04T18:23:55.496Z,32.60
2019-03-04T18:26:32.665Z,30.67
2019-03-04T18:29:07.691Z,19.53
2019-03-04T18:31:49.374Z,18.13
2019-03-04T18:35:12.132Z,21.37
2019-03-04T18:38:35.171Z,20.77
2019-03-04T18:41:25.489Z,15.43
2019-03-04T18:44:51.617Z,20.87
2019-03-04T18:47:44.821Z,17.70
2019-03-04T18:50:14.536Z,14.43
2019-03-04T18:52:44.230Z,15.50
2019-03-04T18:55:13.955Z,24.60
2019-03-04T18:57:43.752Z,18.43
2019-03-04T19:00:15.223Z,12.20
2019-03-04T19:02:44.996Z,15.20
2019-03-04T19:05:15.031Z,15.33
2019-03-04T19:07:44.753Z,9.03
2019-03-04T19:10:14.498Z,14.43
2019-03-04T19:12:44.230Z,10.47
2019-03-04T19:15:13.972Z,16.20
2019-03-04T19:17:43.818Z,8.87
2019-03-04T19:20:13.994Z,10.37
2019-03-04T19:22:43.682Z,12.93
2019-03-04T19:25:13.552Z,9.97
2019-03-04T19:27:43.241Z,12.40
2019-03-04T19:30:13.041Z,10.53
2019-03-04T19:32:42.727Z,12.20
2019-03-04T19:35:12.459Z,7.47
2019-03-04T19:37:42.368Z,6.37
2019-03-04T19:40:12.243Z,8.20
2019-03-04T19:42:41.950Z,11.93
2019-03-04T19:45:13.238Z,6.97
2019-03-04T19:47:43.220Z,18.67
2019-03-04T19:50:12.949Z,14.43
2019-03-04T19:52:42.741Z,13.63
2019-03-04T19:55:12.772Z,8.77
2019-03-04T19:57:42.640Z,11.33
2019-03-04T20:00:15.534Z,10.10
2019-03-04T20:02:45.245Z,6.00
2019-03-04T20:05:15.284Z,9.10
2019-03-04T20:07:45.015Z,7.40
2019-03-04T20:10:14.666Z,6.70
2019-03-04T20:12:44.315Z,9.90
2019-03-04T20:15:16.489Z,4.57
2019-03-04T20:17:46.190Z,4.97
2019-03-04T20:20:15.892Z,7.00
2019-03-04T20:22:45.733Z,4.57
2019-03-04T20:25:15.460Z,5.53
2019-03-04T20:27:45.255Z,3.77
2019-03-04T20:30:15.011Z,4.77
2019-03-04T20:32:44.700Z,8.70
2019-03-04T20:35:14.488Z,5.30
2019-03-04T20:37:46.761Z,3.57
2019-03-04T20:40:16.472Z,3.30
2019-03-04T20:42:46.177Z,5.03
2019-03-04T20:45:17.348Z,3.80
2019-03-04T20:47:47.206Z,13.50
2019-03-04T20:50:20.197Z,17.47
2019-03-04T20:52:49.983Z,4.17
2019-03-04T20:55:19.691Z,8.27
2019-03-04T20:57:49.423Z,7.33
2019-03-04T21:00:27.784Z,6.97
2019-03-04T21:02:57.892Z,4.17
2019-03-04T21:05:29.051Z,9.93
2019-03-04T21:07:58.809Z,4.47
2019-03-04T21:10:28.571Z,5.03
2019-03-04T21:13:02.567Z,4.63
2019-03-04T21:15:32.305Z,3.30
2019-03-04T21:18:02.041Z,6.10
2019-03-04T21:20:33.360Z,4.40
2019-03-04T21:23:03.014Z,5.10
2019-03-04T21:25:41.559Z,4.80
2019-03-04T21:28:17.951Z,4.10
2019-03-04T21:31:40.428Z,3.53
2019-03-04T21:35:00.382Z,4.63
2019-03-04T21:37:42.447Z,4.03
2019-03-04T21:40:19.132Z,5.13
2019-03-04T21:42:59.390Z,2.23
2019-03-04T21:46:06.680Z,2.63
2019-03-04T21:48:45.913Z,2.57
2019-03-04T21:51:57.711Z,1.83
2019-03-04T21:54:27.392Z,4.47
2019-03-04T21:57:30.314Z,3.37
2019-03-04T21:59:59.965Z,4.07
2019-03-04T22:02:45.632Z,3.57
2019-03-04T22:05:15.830Z,3.40
2019-03-04T22:07:45.637Z,4.07
2019-03-04T22:10:15.482Z,3.13
2019-03-04T22:12:45.886Z,2.73
2019-03-04T22:15:16.422Z,4.43
2019-03-04T22:17:46.180Z,1.97
2019-03-04T22:20:16.065Z,4.47
2019-03-04T22:22:45.739Z,2.73
2019-03-04T22:25:16.507Z,2.03
2019-03-04T22:27:46.253Z,2.73
2019-03-04T22:30:16.768Z,3.43
2019-03-04T22:32:46.421Z,3.43
2019-03-04T22:35:17.261Z,4.93
2019-03-04T22:37:47.280Z,3.07
2019-03-04T22:40:18.120Z,2.50
2019-03-04T22:42:47.749Z,3.53
2019-03-04T22:45:18.564Z,1.57
2019-03-04T22:47:48.901Z,1.67
2019-03-04T22:50:19.191Z,2.70
2019-03-04T22:52:48.856Z,2.30
2019-03-04T22:55:24.464Z,2.40
2019-03-04T22:57:54.121Z,3.33
2019-03-04T23:01:30.666Z,3.20
2019-03-04T23:04:19.535Z,1.60
2019-03-04T23:06:58.534Z,3.20
2019-03-04T23:09:30.086Z,3.80
2019-03-04T23:12:11.836Z,2.33
2019-03-04T23:14:41.521Z,1.70
2019-03-04T23:17:11.253Z,2.27
2019-03-04T23:19:40.965Z,2.63
2019-03-04T23:22:10.618Z,3.03
2019-03-04T23:24:40.256Z,3.27
2019-03-04T23:27:09.988Z,4.30
2019-03-04T23:29:39.643Z,2.60
2019-03-04T23:32:09.283Z,4.77
2019-03-04T23:34:38.930Z,1.80
2019-03-04T23:37:08.763Z,2.73
2019-03-04T23:39:38.411Z,2.90
2019-03-04T23:42:08.048Z,2.37
2019-03-04T23:44:37.701Z,2.87
2019-03-04T23:47:07.376Z,2.60
2019-03-04T23:49:37.251Z,3.40
2019-03-04T23:52:06.888Z,3.37
2019-03-04T23:54:36.540Z,3.80
2019-03-04T23:57:06.215Z,1.40
2019-03-04T23:59:35.858Z,3.07
